Time;durP1;ratioP1;P1;durP2;ratioP2;P2;SDS_P1;SDS_P2;PMS_P1;PMS_P2;Temp;Humidity;BMP_temperature;BMP_pressure;BME280_temperature;BME280_humidity;BME280_pressure;Samples;Min_cycle;Max_cycle;Signal;HPM_P1;HPM_P2
2023/05/27 00:02:25;;;;;;;24.52;6.25;;;12.50;99.90;;;;;;5127543;28;20019;-90
2023/05/27 00:04:51;;;;;;;18.25;5.82;;;13.70;99.90;;;;;;5121110;28;20314;-89
2023/05/27 00:07:17;;;;;;;21.55;6.03;;;12.50;99.90;;;;;;5113716;28;20019;-90
2023/05/27 00:09:42;;;;;;;24.27;6.28;;;12.40;99.90;;;;;;5116564;28;20049;-91
2023/05/27 00:12:08;;;;;;;22.70;5.65;;;12.40;99.90;;;;;;5114213;28;20022;-91
2023/05/27 00:14:33;;;;;;;17.88;6.88;;;12.40;99.90;;;;;;5113384;28;20479;-90
2023/05/27 00:17:01;;;;;;;19.00;5.50;;;12.40;99.90;;;;;;5114257;28;20098;-89
2023/05/27 00:19:29;;;;;;;18.63;5.72;;;12.40;99.90;;;;;;5114167;28;20467;-90
2023/05/27 00:21:55;;;;;;;22.88;5.55;;;12.40;99.90;;;;;;5126210;28;20028;-90
2023/05/27 00:24:21;;;;;;;19.45;5.68;;;12.50;99.90;;;;;;5114091;28;20027;-89
2023/05/27 00:26:47;;;;;;;20.35;6.07;;;12.50;99.90;;;;;;5113249;28;20476;-89
2023/05/27 00:29:13;;;;;;;20.63;6.18;;;12.40;99.90;;;;;;5113117;28;20031;-90
2023/05/27 00:31:39;;;;;;;24.58;6.32;;;12.30;99.90;;;;;;5113048;28;20093;-90
2023/05/27 00:34:05;;;;;;;15.73;4.80;;;12.20;99.90;;;;;;5113558;28;20489;-89
2023/05/27 00:36:33;;;;;;;18.98;5.40;;;12.10;99.90;;;;;;5114202;28;20073;-90
2023/05/27 00:38:59;;;;;;;18.55;5.72;;;12.00;99.90;;;;;;5114270;28;20163;-89
2023/05/27 00:41:26;;;;;;;13.15;5.13;;;12.00;99.90;;;;;;5114257;28;20023;-89
2023/05/27 00:43:52;;;;;;;16.88;5.90;;;12.40;99.90;;;;;;5113777;28;20028;-90
2023/05/27 00:46:18;;;;;;;14.60;5.65;;;12.00;99.90;;;;;;5114173;28;20517;-90
2023/05/27 00:48:44;;;;;;;16.60;5.90;;;12.10;99.90;;;;;;5112328;28;20024;-90
2023/05/27 00:51:10;;;;;;;19.25;5.57;;;12.10;99.90;;;;;;5113385;28;20020;-90
2023/05/27 00:53:43;;;;;;;16.77;5.00;;;12.10;99.90;;;;;;5113059;28;20102;-90
2023/05/27 00:56:09;;;;;;;15.68;5.03;;;12.10;99.90;;;;;;5113455;28;20030;-90
2023/05/27 00:58:36;;;;;;;20.92;4.75;;;12.10;99.90;;;;;;5113253;28;20030;-90
2023/05/27 01:01:05;;;;;;;15.38;5.47;;;12.10;99.90;;;;;;5113532;28;20036;-90
2023/05/27 01:03:32;;;;;;;17.42;5.07;;;12.10;99.90;;;;;;5112785;28;20128;-89
2023/05/27 01:06:28;;;;;;;14.57;4.45;;;12.10;99.90;;;;;;5113074;28;20024;-89
2023/05/27 01:09:22;;;;;;;22.02;5.57;;;12.00;99.90;;;;;;5101793;28;20036;-89
2023/05/27 01:12:15;;;;;;;12.10;4.82;;;11.80;99.90;;;;;;5112829;28;20047;-89
2023/05/27 01:14:43;;;;;;;11.95;4.55;;;11.70;99.90;;;;;;5099207;28;20028;-86
2023/05/27 01:17:11;;;;;;;17.02;5.65;;;11.60;99.90;;;;;;5093833;28;20028;-89
2023/05/27 01:19:42;;;;;;;22.05;4.80;;;11.60;99.90;;;;;;5098504;28;20105;-89
2023/05/27 01:22:11;;;;;;;20.23;4.82;;;11.40;99.90;;;;;;5093068;28;20021;-88
2023/05/27 01:24:37;;;;;;;23.15;5.35;;;11.40;99.90;;;;;;5091712;28;20078;-89
2023/05/27 01:27:03;;;;;;;16.85;5.05;;;11.30;99.90;;;;;;5100466;28;20442;-88
2023/05/27 01:29:30;;;;;;;12.93;4.88;;;11.20;99.90;;;;;;5100543;28;20029;-89
2023/05/27 01:32:04;;;;;;;13.52;4.22;;;11.20;99.90;;;;;;5099108;28;20078;-89
2023/05/27 01:34:43;;;;;;;11.48;4.88;;;11.20;99.90;;;;;;5096016;28;20024;-90
2023/05/27 01:37:12;;;;;;;16.30;4.90;;;11.20;99.90;;;;;;5092856;28;20082;-89
2023/05/27 01:39:40;;;;;;;17.23;4.57;;;11.20;99.90;;;;;;5096973;28;20036;-89
2023/05/27 01:42:07;;;;;;;16.35;4.30;;;11.20;99.90;;;;;;5092573;28;20055;-89
2023/05/27 01:44:33;;;;;;;14.98;3.80;;;11.40;99.90;;;;;;5103211;28;20063;-89
2023/05/27 01:47:02;;;;;;;13.13;4.60;;;11.30;99.90;;;;;;5116384;28;20051;-89
2023/05/27 01:49:28;;;;;;;13.32;4.18;;;11.40;99.90;;;;;;5116453;28;20483;-90
2023/05/27 01:51:53;;;;;;;16.63;5.13;;;11.40;99.90;;;;;;5115506;28;20019;-89
2023/05/27 01:54:19;;;;;;;15.52;3.83;;;11.30;99.90;;;;;;5129712;27;20391;-88
2023/05/27 01:56:45;;;;;;;15.35;4.45;;;11.40;99.90;;;;;;5136596;27;20474;-89
2023/05/27 01:59:10;;;;;;;16.85;5.07;;;11.40;99.90;;;;;;5136004;27;20103;-88
2023/05/27 02:01:36;;;;;;;13.68;4.07;;;11.50;99.90;;;;;;5136542;27;20023;-88
2023/05/27 02:04:03;;;;;;;12.05;4.15;;;11.50;99.90;;;;;;5136440;27;20027;-89
2023/05/27 02:06:29;;;;;;;25.85;4.45;;;11.50;99.90;;;;;;5136228;27;20019;-89
2023/05/27 02:08:55;;;;;;;12.82;3.38;;;11.50;99.90;;;;;;5140448;27;20463;-89
2023/05/27 02:11:20;;;;;;;19.33;4.40;;;11.50;99.90;;;;;;5139602;27;20030;-90
2023/05/27 02:13:46;;;;;;;11.13;3.80;;;11.50;99.90;;;;;;5135956;27;20030;-89
2023/05/27 02:16:12;;;;;;;15.68;4.57;;;11.50;99.90;;;;;;5136171;27;20023;-89
2023/05/27 02:18:38;;;;;;;9.85;3.67;;;11.50;99.90;;;;;;5136227;27;20065;-89
2023/05/27 02:21:05;;;;;;;17.85;4.20;;;11.50;99.90;;;;;;5118938;27;20051;-90
2023/05/27 02:23:36;;;;;;;12.45;4.10;;;11.60;99.90;;;;;;5115757;28;20051;-89
2023/05/27 02:26:01;;;;;;;12.40;3.45;;;11.50;99.90;;;;;;5115787;28;20019;-89
2023/05/27 02:28:27;;;;;;;13.35;4.30;;;11.60;99.90;;;;;;5115429;28;20078;-88
2023/05/27 02:30:53;;;;;;;17.27;4.50;;;11.60;99.90;;;;;;5115100;28;20078;-88
2023/05/27 02:33:18;;;;;;;20.98;4.85;;;11.60;99.90;;;;;;5114976;28;20414;-88
2023/05/27 02:35:44;;;;;;;15.35;4.30;;;11.60;99.90;;;;;;5114850;28;20034;-88
2023/05/27 02:38:10;;;;;;;15.85;4.43;;;11.60;99.90;;;;;;5115686;28;20027;-89
2023/05/27 02:40:35;;;;;;;14.40;4.28;;;11.50;99.90;;;;;;5114264;28;20020;-90
2023/05/27 02:43:01;;;;;;;12.93;3.88;;;11.50;99.90;;;;;;5115343;28;20020;-89
2023/05/27 02:45:26;;;;;;;9.68;4.03;;;11.50;99.90;;;;;;5115957;28;20055;-90
2023/05/27 02:47:54;;;;;;;13.02;3.88;;;11.50;99.90;;;;;;5115498;28;20019;-89
2023/05/27 02:50:20;;;;;;;15.70;4.47;;;11.30;99.90;;;;;;5115394;28;20024;-89
2023/05/27 02:52:45;;;;;;;15.15;3.92;;;11.10;99.90;;;;;;5115309;28;20027;-90
2023/05/27 02:55:11;;;;;;;18.27;4.53;;;11.10;99.90;;;;;;5114384;28;20023;-89
2023/05/27 02:57:36;;;;;;;16.23;3.78;;;11.10;99.90;;;;;;5114820;28;20024;-90
2023/05/27 03:00:03;;;;;;;17.42;4.60;;;11.10;99.90;;;;;;5114696;28;20498;-88
2023/05/27 03:02:29;;;;;;;15.63;4.47;;;11.10;99.90;;;;;;5119937;28;20054;-89
2023/05/27 03:04:57;;;;;;;16.08;4.03;;;12.20;99.90;;;;;;5124451;28;20468;-89
2023/05/27 03:07:23;;;;;;;8.60;4.13;;;11.20;99.90;;;;;;5115282;28;20110;-90
2023/05/27 03:09:48;;;;;;;13.80;4.50;;;11.10;99.90;;;;;;5114429;28;20095;-89
2023/05/27 03:12:14;;;;;;;13.07;4.07;;;11.00;99.90;;;;;;5114609;28;20054;-88
2023/05/27 03:14:40;;;;;;;19.00;4.97;;;11.00;99.90;;;;;;5114594;28;20023;-89
2023/05/27 03:17:05;;;;;;;10.93;4.13;;;11.10;99.90;;;;;;5114301;28;20027;-90
2023/05/27 03:19:31;;;;;;;23.52;4.85;;;11.10;99.90;;;;;;5115011;28;20095;-90
2023/05/27 03:21:56;;;;;;;14.07;4.68;;;11.20;99.90;;;;;;5114752;28;20380;-90
2023/05/27 03:24:22;;;;;;;19.95;4.05;;;11.10;99.90;;;;;;5114618;28;20045;-89
2023/05/27 03:26:48;;;;;;;15.32;3.90;;;11.10;99.90;;;;;;5115078;28;20043;-88
2023/05/27 03:29:13;;;;;;;14.23;3.80;;;11.10;99.90;;;;;;5117684;28;20038;-88
2023/05/27 03:31:39;;;;;;;13.57;3.60;;;11.10;99.90;;;;;;5117619;28;20031;-89
2023/05/27 03:34:05;;;;;;;11.13;4.05;;;11.10;99.90;;;;;;5120089;28;20024;-90
2023/05/27 03:36:30;;;;;;;16.67;4.07;;;11.20;99.90;;;;;;5115523;28;20027;-89
2023/05/27 03:38:56;;;;;;;13.48;3.70;;;11.20;99.90;;;;;;5119251;28;20064;-90
2023/05/27 03:41:22;;;;;;;21.40;4.78;;;11.20;99.90;;;;;;5122203;28;20016;-89
2023/05/27 03:43:47;;;;;;;11.50;3.67;;;11.20;99.90;;;;;;5116235;28;20111;-90
2023/05/27 03:46:13;;;;;;;15.40;4.80;;;11.20;99.90;;;;;;5114468;28;20016;-90
2023/05/27 03:48:38;;;;;;;19.13;5.57;;;11.20;99.90;;;;;;5114323;28;20016;-90
2023/05/27 03:51:04;;;;;;;13.90;4.32;;;11.10;99.90;;;;;;5113198;28;20023;-89
2023/05/27 03:53:31;;;;;;;12.35;3.50;;;11.10;99.90;;;;;;5114240;28;20073;-90
2023/05/27 03:55:56;;;;;;;15.75;4.32;;;11.20;99.90;;;;;;5115456;28;20083;-89
2023/05/27 03:58:22;;;;;;;19.42;5.15;;;11.10;99.90;;;;;;5122661;28;20035;-90
2023/05/27 04:00:48;;;;;;;11.10;3.75;;;11.00;99.90;;;;;;5114052;28;20024;-90
2023/05/27 04:03:14;;;;;;;12.32;4.25;;;11.40;99.90;;;;;;5114521;28;20035;-90
2023/05/27 04:05:40;;;;;;;15.55;3.47;;;10.90;99.90;;;;;;5114719;27;20028;-89
2023/05/27 04:08:05;;;;;;;12.93;4.20;;;11.00;99.90;;;;;;5112803;28;20023;-90
2023/05/27 04:10:31;;;;;;;14.13;3.75;;;11.00;99.90;;;;;;5101784;28;20028;-91
2023/05/27 04:12:56;;;;;;;14.30;3.72;;;11.00;99.90;;;;;;5092824;28;20024;-88
2023/05/27 04:15:31;;;;;;;15.82;4.38;;;10.90;99.90;;;;;;5093277;28;20039;-90
2023/05/27 04:17:57;;;;;;;21.38;4.75;;;10.80;99.90;;;;;;5093855;28;20024;-89
2023/05/27 04:20:23;;;;;;;18.27;4.78;;;11.00;99.90;;;;;;5092858;28;20547;-90
2023/05/27 04:22:48;;;;;;;14.07;4.05;;;10.90;99.90;;;;;;5093432;28;20090;-89
2023/05/27 04:25:14;;;;;;;17.25;4.43;;;11.00;99.90;;;;;;5093032;28;20024;-90
2023/05/27 04:27:40;;;;;;;18.92;4.15;;;11.00;99.90;;;;;;5092446;28;20040;-89
2023/05/27 04:30:06;;;;;;;10.18;3.70;;;11.00;99.90;;;;;;5091598;28;20020;-89
2023/05/27 04:32:38;;;;;;;21.27;4.55;;;11.10;99.90;;;;;;5091363;28;20040;-89
2023/05/27 04:35:09;;;;;;;13.52;4.07;;;11.10;99.90;;;;;;5091101;28;20048;-89
2023/05/27 04:37:36;;;;;;;24.90;4.45;;;11.20;99.90;;;;;;5091435;28;20030;-90
2023/05/27 04:40:03;;;;;;;15.95;4.47;;;11.10;99.90;;;;;;5091590;28;20036;-90
2023/05/27 04:42:29;;;;;;;21.42;4.60;;;11.20;99.90;;;;;;5091737;28;20028;-89
2023/05/27 04:44:54;;;;;;;13.05;3.83;;;11.20;99.90;;;;;;5092526;28;20028;-89
2023/05/27 04:47:21;;;;;;;18.00;4.55;;;11.20;99.90;;;;;;5096200;28;20028;-89
2023/05/27 04:49:46;;;;;;;14.73;4.03;;;11.20;99.90;;;;;;5103036;28;20044;-90
2023/05/27 04:52:12;;;;;;;17.27;5.03;;;11.10;99.90;;;;;;5102683;28;20429;-90
2023/05/27 04:54:38;;;;;;;17.45;3.95;;;10.90;99.90;;;;;;5094402;28;20031;-89
2023/05/27 04:57:04;;;;;;;18.92;4.63;;;10.90;99.90;;;;;;5093869;28;20024;-89
2023/05/27 04:59:46;;;;;;;20.48;4.88;;;10.90;99.90;;;;;;5101712;28;20043;-91
2023/05/27 05:02:21;;;;;;;24.80;5.15;;;11.00;99.90;;;;;;5113140;28;20078;-90
2023/05/27 05:04:47;;;;;;;15.75;4.28;;;11.10;99.90;;;;;;5113426;28;20032;-91
2023/05/27 05:07:12;;;;;;;13.70;4.60;;;11.10;99.90;;;;;;5113453;28;20023;-90
2023/05/27 05:09:38;;;;;;;20.35;4.57;;;11.20;99.90;;;;;;5112463;28;20423;-89
2023/05/27 05:12:04;;;;;;;17.92;4.80;;;11.20;99.90;;;;;;5113546;28;20019;-90
2023/05/27 05:14:30;;;;;;;22.05;4.22;;;11.20;99.90;;;;;;5113062;28;20031;-88
2023/05/27 05:16:55;;;;;;;16.50;5.07;;;11.20;99.90;;;;;;5112164;28;20020;-89
2023/05/27 05:19:21;;;;;;;16.63;4.47;;;11.30;99.90;;;;;;5114500;28;20061;-89
2023/05/27 05:21:46;;;;;;;18.70;4.93;;;11.40;99.90;;;;;;5117850;28;20028;-90
2023/05/27 05:24:12;;;;;;;16.10;4.72;;;11.40;99.90;;;;;;5117921;28;20024;-90
2023/05/27 05:26:37;;;;;;;15.48;4.70;;;11.40;99.90;;;;;;5116879;28;20047;-89
2023/05/27 05:29:03;;;;;;;13.93;4.88;;;11.50;99.90;;;;;;5117260;28;20145;-89
2023/05/27 05:31:29;;;;;;;17.25;5.22;;;11.50;99.90;;;;;;5116486;28;20097;-89
2023/05/27 05:33:54;;;;;;;14.85;4.45;;;11.50;99.90;;;;;;5116472;28;20370;-89
2023/05/27 05:36:20;;;;;;;18.80;4.75;;;11.50;99.90;;;;;;5116920;28;20050;-89
2023/05/27 05:38:47;;;;;;;19.30;4.82;;;11.60;99.90;;;;;;5116391;28;20040;-90
2023/05/27 05:41:12;;;;;;;13.75;4.20;;;11.60;99.90;;;;;;5116680;28;20047;-90
2023/05/27 05:43:38;;;;;;;18.58;4.72;;;11.70;99.90;;;;;;5116179;28;20078;-90
2023/05/27 05:46:03;;;;;;;24.23;4.53;;;11.70;99.90;;;;;;5126261;28;20015;-89
2023/05/27 05:48:29;;;;;;;13.45;4.88;;;12.00;99.90;;;;;;5121120;27;20031;-90
2023/05/27 05:50:55;;;;;;;14.52;4.10;;;11.70;99.90;;;;;;5136384;27;20030;-91
2023/05/27 05:53:20;;;;;;;23.52;4.75;;;11.70;99.90;;;;;;5132027;27;20486;-90
2023/05/27 05:55:46;;;;;;;17.85;5.28;;;12.20;99.90;;;;;;5106995;28;20038;-87
2023/05/27 05:58:11;;;;;;;16.08;4.95;;;11.60;99.90;;;;;;5101874;28;20035;-90
2023/05/27 06:00:37;;;;;;;22.25;4.78;;;11.70;99.90;;;;;;5106288;28;20026;-91
2023/05/27 06:03:03;;;;;;;17.42;5.15;;;11.70;99.90;;;;;;5106702;28;20474;-88
2023/05/27 06:05:29;;;;;;;17.10;4.90;;;11.70;99.90;;;;;;5103095;28;20027;-90
2023/05/27 06:07:54;;;;;;;18.85;5.28;;;11.70;99.90;;;;;;5103586;28;20024;-89
2023/05/27 06:10:20;;;;;;;17.20;4.07;;;11.70;99.90;;;;;;5106561;28;20023;-89
2023/05/27 06:12:45;;;;;;;14.70;4.90;;;12.20;99.90;;;;;;5104719;28;20020;-90
2023/05/27 06:15:12;;;;;;;22.63;5.60;;;11.90;99.90;;;;;;5105080;28;20031;-89
2023/05/27 06:17:37;;;;;;;15.65;5.20;;;11.80;99.90;;;;;;5106390;28;20020;-89
2023/05/27 06:20:03;;;;;;;12.82;4.60;;;11.80;99.90;;;;;;5104249;28;20175;-88
2023/05/27 06:22:29;;;;;;;18.63;4.72;;;11.90;99.90;;;;;;5106122;28;20042;-90
2023/05/27 06:24:54;;;;;;;19.85;5.03;;;11.90;99.90;;;;;;5107468;28;20024;-89
2023/05/27 06:27:20;;;;;;;23.50;5.47;;;12.00;99.90;;;;;;5104913;28;20146;-90
2023/05/27 06:29:46;;;;;;;17.85;4.32;;;12.00;99.90;;;;;;5106667;28;20019;-89
2023/05/27 06:32:12;;;;;;;15.55;5.18;;;12.00;99.90;;;;;;5108419;28;20035;-88
2023/05/27 06:34:37;;;;;;;15.50;5.35;;;12.10;99.90;;;;;;5107090;28;20013;-89
2023/05/27 06:37:03;;;;;;;15.50;4.38;;;12.10;99.90;;;;;;5108521;28;20387;-88
2023/05/27 06:39:28;;;;;;;19.25;5.45;;;12.20;99.90;;;;;;5112599;28;20147;-89
2023/05/27 06:41:54;;;;;;;19.08;5.57;;;12.20;99.90;;;;;;5107446;28;20047;-89
2023/05/27 06:44:19;;;;;;;21.10;5.60;;;12.50;99.90;;;;;;5106527;28;20023;-89
2023/05/27 06:46:45;;;;;;;17.17;5.68;;;12.10;99.90;;;;;;5103425;28;20396;-89
2023/05/27 06:49:11;;;;;;;17.92;5.10;;;12.30;99.90;;;;;;5105444;27;20157;-89
2023/05/27 06:51:36;;;;;;;20.85;5.50;;;12.30;99.90;;;;;;5135678;27;20046;-89
2023/05/27 06:54:02;;;;;;;16.48;5.03;;;12.30;99.90;;;;;;5134370;27;20023;-86
2023/05/27 06:56:27;;;;;;;20.48;4.75;;;12.20;99.90;;;;;;5136373;27;20037;-87
2023/05/27 06:58:53;;;;;;;24.42;5.47;;;12.40;99.90;;;;;;5135102;27;20490;-87
2023/05/27 07:01:18;;;;;;;20.60;5.47;;;12.40;99.90;;;;;;5134741;27;20047;-88
2023/05/27 07:03:44;;;;;;;15.55;5.18;;;12.50;99.90;;;;;;5112510;27;20031;-88
2023/05/27 07:06:10;;;;;;;23.90;5.22;;;12.50;99.90;;;;;;5110468;28;20032;-89
2023/05/27 07:08:35;;;;;;;22.05;5.88;;;12.50;99.90;;;;;;5117046;28;20103;-88
2023/05/27 07:11:01;;;;;;;15.02;5.28;;;12.50;99.90;;;;;;5115594;28;20016;-88
2023/05/27 07:13:27;;;;;;;22.90;6.10;;;12.60;99.90;;;;;;5117983;28;20073;-90
2023/05/27 07:15:52;;;;;;;21.27;5.25;;;12.60;99.90;;;;;;5121633;28;20100;-89
2023/05/27 07:18:18;;;;;;;16.30;5.15;;;12.60;99.90;;;;;;5117896;28;20039;-89
2023/05/27 07:20:44;;;;;;;14.95;4.75;;;12.70;99.90;;;;;;5114530;28;20031;-88
2023/05/27 07:23:09;;;;;;;17.77;5.50;;;12.80;99.90;;;;;;5114113;28;20036;-89
2023/05/27 07:25:35;;;;;;;16.00;5.10;;;12.90;99.90;;;;;;5114684;28;20023;-89
2023/05/27 07:28:00;;;;;;;19.85;5.70;;;12.80;99.90;;;;;;5115048;28;20054;-89
2023/05/27 07:30:26;;;;;;;22.30;5.45;;;12.80;99.90;;;;;;5114183;28;20097;-89
2023/05/27 07:32:53;;;;;;;17.67;5.55;;;12.80;99.90;;;;;;5121402;28;20023;-89
2023/05/27 07:35:18;;;;;;;32.92;6.80;;;12.90;99.90;;;;;;5118536;28;20028;-89
2023/05/27 07:37:44;;;;;;;22.15;6.20;;;13.00;99.90;;;;;;5114113;28;20024;-90
2023/05/27 07:40:10;;;;;;;26.77;6.22;;;13.20;99.90;;;;;;5114676;28;20425;-90
2023/05/27 07:42:36;;;;;;;15.63;5.28;;;13.00;99.90;;;;;;5113559;28;20450;-91
2023/05/27 07:45:02;;;;;;;16.40;5.32;;;13.00;99.90;;;;;;5113742;28;20034;-86
2023/05/27 07:47:28;;;;;;;22.65;5.57;;;13.10;99.90;;;;;;5114001;28;20490;-87
2023/05/27 07:49:54;;;;;;;20.27;5.75;;;13.20;99.90;;;;;;5113490;28;20020;-87
2023/05/27 07:52:19;;;;;;;19.15;5.45;;;13.20;99.90;;;;;;5103906;28;20025;-87
2023/05/27 07:54:45;;;;;;;24.63;6.30;;;13.20;99.90;;;;;;5102350;28;20071;-87
2023/05/27 07:57:10;;;;;;;19.13;6.25;;;13.20;99.90;;;;;;5100353;28;20021;-86
2023/05/27 07:59:36;;;;;;;17.73;5.60;;;13.30;99.90;;;;;;5094022;28;20036;-87
2023/05/27 08:02:01;;;;;;;23.33;6.40;;;13.30;99.90;;;;;;5095178;28;20023;-87
2023/05/27 08:04:27;;;;;;;25.58;5.93;;;13.30;99.90;;;;;;5102237;28;20491;-86
2023/05/27 08:06:53;;;;;;;23.08;6.15;;;13.40;99.90;;;;;;5101762;28;20020;-87
2023/05/27 08:09:18;;;;;;;19.23;6.25;;;14.00;99.90;;;;;;5103885;28;20016;-87
2023/05/27 08:11:44;;;;;;;26.77;6.25;;;13.40;99.90;;;;;;5101436;28;20022;-88
2023/05/27 08:14:09;;;;;;;20.25;6.13;;;13.40;99.90;;;;;;5094233;28;20062;-88
2023/05/27 08:16:35;;;;;;;20.85;5.82;;;13.40;99.90;;;;;;5092885;28;20054;-85
2023/05/27 08:19:00;;;;;;;21.95;5.85;;;13.40;99.90;;;;;;5105467;28;20457;-86
2023/05/27 08:21:26;;;;;;;26.02;7.35;;;13.50;99.90;;;;;;5113233;28;20028;-87
2023/05/27 08:23:52;;;;;;;24.60;5.80;;;13.70;99.90;;;;;;5112482;28;20027;-86
2023/05/27 08:26:17;;;;;;;18.80;6.60;;;13.50;99.90;;;;;;5114032;28;20051;-86
2023/05/27 08:28:43;;;;;;;24.65;6.22;;;13.40;99.90;;;;;;5113538;28;20118;-86
2023/05/27 08:31:08;;;;;;;19.38;6.55;;;13.60;99.90;;;;;;5112870;28;20020;-87
2023/05/27 08:33:34;;;;;;;24.65;6.43;;;13.60;99.90;;;;;;5111960;28;20024;-87
2023/05/27 08:35:59;;;;;;;19.92;6.60;;;13.70;99.90;;;;;;5113005;28;20020;-87
2023/05/27 08:38:25;;;;;;;16.40;5.93;;;13.80;99.90;;;;;;5113060;28;20028;-87
2023/05/27 08:40:53;;;;;;;18.20;5.65;;;13.80;99.90;;;;;;5111949;28;20369;-87
2023/05/27 08:43:18;;;;;;;16.95;6.03;;;13.90;99.90;;;;;;5112885;28;20020;-86
2023/05/27 08:45:44;;;;;;;19.58;6.75;;;13.90;99.90;;;;;;5112644;28;20149;-87
2023/05/27 08:48:10;;;;;;;21.90;6.32;;;13.90;99.90;;;;;;5111895;28;20030;-88
2023/05/27 08:50:36;;;;;;;19.88;6.45;;;13.90;99.90;;;;;;5112742;28;20110;-87
2023/05/27 08:53:02;;;;;;;29.00;6.35;;;14.00;99.90;;;;;;5113637;28;20020;-85
2023/05/27 08:55:30;;;;;;;23.50;8.70;;;14.10;99.90;;;;;;5116598;28;20063;-86
2023/05/27 08:58:00;;;;;;;21.45;6.80;;;14.10;99.90;;;;;;5116652;28;20031;-85
2023/05/27 09:00:26;;;;;;;26.50;7.95;;;14.20;99.90;;;;;;5116034;28;20036;-84
2023/05/27 09:02:56;;;;;;;19.13;7.75;;;14.20;99.90;;;;;;5116713;28;20038;-86
2023/05/27 09:05:22;;;;;;;16.50;6.00;;;14.30;99.90;;;;;;5117072;28;20030;-86
2023/05/27 09:07:48;;;;;;;20.10;6.95;;;14.30;99.90;;;;;;5105076;28;20452;-86
2023/05/27 09:10:13;;;;;;;25.02;7.15;;;14.30;99.90;;;;;;5096382;28;20048;-86
2023/05/27 09:12:43;;;;;;;20.92;6.28;;;14.80;99.90;;;;;;5096085;28;20042;-87
2023/05/27 09:15:10;;;;;;;23.00;6.40;;;14.30;99.90;;;;;;5095634;28;20020;-86
2023/05/27 09:17:43;;;;;;;29.92;7.97;;;14.40;99.90;;;;;;5097323;28;20028;-94
2023/05/27 09:20:13;;;;;;;23.05;7.40;;;14.50;99.90;;;;;;5115079;28;20032;-94
2023/05/27 09:22:42;;;;;;;29.52;7.30;;;14.50;99.90;;;;;;5104839;28;20020;-93
2023/05/27 09:25:08;;;;;;;16.88;6.03;;;14.50;99.90;;;;;;5096262;28;20538;-89
2023/05/27 09:27:34;;;;;;;26.80;7.78;;;14.70;99.90;;;;;;5101741;28;20127;-90
2023/05/27 09:30:10;;;;;;;26.27;6.88;;;14.80;99.90;;;;;;5101718;28;20044;-95
2023/05/27 09:32:35;;;;;;;17.33;6.55;;;14.80;99.90;;;;;;5103190;28;20099;-95
2023/05/27 09:35:02;;;;;;;26.33;6.50;;;15.70;99.90;;;;;;5103755;28;20048;-94
2023/05/27 09:37:34;;;;;;;22.02;7.55;;;15.00;99.90;;;;;;5098740;28;20066;-93
2023/05/27 09:40:04;;;;;;;13.23;6.07;;;15.00;99.90;;;;;;5098205;28;20082;-93
2023/05/27 09:42:48;;;;;;;18.27;6.55;;;15.10;99.90;;;;;;5099954;28;20013;-94
2023/05/27 09:45:16;;;;;;;19.73;6.80;;;15.10;99.90;;;;;;5096890;28;20032;-93
2023/05/27 09:47:51;;;;;;;22.40;6.97;;;15.10;99.90;;;;;;5096633;28;20028;-94
2023/05/27 09:50:18;;;;;;;30.08;9.02;;;15.10;99.90;;;;;;5099149;28;20430;-93
2023/05/27 09:52:44;;;;;;;24.55;7.05;;;15.30;99.90;;;;;;5105145;28;20020;-95
2023/05/27 09:55:12;;;;;;;20.20;6.95;;;15.30;99.90;;;;;;5099632;28;20028;-93
2023/05/27 09:57:38;;;;;;;20.67;6.60;;;15.30;99.90;;;;;;5100580;28;20024;-95
2023/05/27 10:00:11;;;;;;;22.58;7.90;;;15.40;99.90;;;;;;5103515;28;20039;-93
2023/05/27 10:02:39;;;;;;;22.67;7.47;;;15.40;99.90;;;;;;5102094;28;20472;-94
2023/05/27 10:05:07;;;;;;;29.35;6.68;;;15.30;99.90;;;;;;5099264;28;20533;-94
2023/05/27 10:07:40;;;;;;;18.13;6.28;;;15.40;99.90;;;;;;5097406;28;20028;-89
2023/05/27 10:10:11;;;;;;;16.25;6.47;;;15.50;99.90;;;;;;5096234;28;20028;-90
2023/05/27 10:12:39;;;;;;;17.30;6.03;;;15.90;99.90;;;;;;5107822;28;20036;-94
2023/05/27 10:15:05;;;;;;;24.15;7.18;;;15.60;99.90;;;;;;5110950;28;20107;-93
2023/05/27 10:17:47;;;;;;;23.67;7.60;;;15.70;99.90;;;;;;5097168;28;20051;-91
2023/05/27 10:20:45;;;;;;;23.73;7.45;;;15.80;99.90;;;;;;5095846;28;20119;-88
2023/05/27 10:23:18;;;;;;;17.35;6.65;;;15.90;99.90;;;;;;5087851;28;20078;-86
2023/05/27 10:25:49;;;;;;;18.08;6.50;;;16.40;99.90;;;;;;5094234;28;20032;-87
2023/05/27 10:28:28;;;;;;;19.52;6.85;;;16.70;99.90;;;;;;5099578;28;20035;-86
2023/05/27 10:31:06;;;;;;;14.57;7.07;;;15.80;99.90;;;;;;5114874;28;20020;-86
2023/05/27 10:33:35;;;;;;;20.88;7.03;;;15.90;99.90;;;;;;5103312;28;20016;-86
2023/05/27 10:36:10;;;;;;;20.00;6.93;;;16.00;99.90;;;;;;5094789;28;20039;-86
2023/05/27 10:38:37;;;;;;;18.48;6.57;;;15.90;99.90;;;;;;5098575;28;20072;-91
2023/05/27 10:41:05;;;;;;;18.33;6.28;;;16.00;99.90;;;;;;5101286;28;20051;-90
2023/05/27 10:43:32;;;;;;;24.00;6.40;;;16.20;99.90;;;;;;5101343;28;20068;-88
2023/05/27 10:46:13;;;;;;;21.58;5.40;;;16.20;99.90;;;;;;5115059;28;20020;-88
2023/05/27 10:48:39;;;;;;;;;;;17.40;99.90;;;;;;5120219;28;20103;-89
2023/05/27 10:51:06;;;;;;;16.48;6.35;;;16.90;99.90;;;;;;5119198;28;19904;-89
2023/05/27 10:53:50;;;;;;;20.98;6.72;;;16.30;99.90;;;;;;5113005;28;20020;-88
2023/05/27 10:56:16;;;;;;;26.38;6.95;;;17.20;99.90;;;;;;5113896;28;20027;-90
2023/05/27 10:58:44;;;;;;;16.95;5.78;;;17.30;99.90;;;;;;5113869;28;20528;-90
2023/05/27 11:01:57;;;;;;;22.90;6.43;;;16.10;99.90;;;;;;5113558;28;20398;-89
2023/05/27 11:07:12;;;;;;;22.27;6.47;;;16.60;99.90;;;;;;5060728;28;20049;-89
2023/05/27 11:10:00;;;;;;;22.55;6.43;;;16.70;99.90;;;;;;5054923;28;20116;-91
2023/05/27 11:12:26;;;;;;;28.05;6.72;;;16.60;99.90;;;;;;5053037;28;20033;-91
2023/05/27 11:15:04;;;;;;;20.20;6.97;;;16.70;99.90;;;;;;5054645;28;20561;-91
2023/05/27 11:17:30;;;;;;;13.90;5.63;;;16.70;99.90;;;;;;5054624;28;20028;-91
2023/05/27 11:19:55;;;;;;;22.95;6.57;;;18.00;99.90;;;;;;5186526;23;20051;-91
2023/05/27 11:22:43;;;;;;;19.35;5.60;;;17.60;99.90;;;;;;5135421;27;20022;-92
2023/05/27 11:25:09;;;;;;;14.60;5.85;;;16.20;99.90;;;;;;5134974;27;20486;-91
2023/05/27 11:27:57;;;;;;;14.23;5.90;;;17.90;99.90;;;;;;5135473;27;20023;-90
2023/05/27 11:30:24;;;;;;;24.58;6.95;;;17.00;99.90;;;;;;5080706;27;20132;-91
2023/05/27 11:33:10;;;;;;;17.88;6.88;;;17.10;99.90;;;;;;5136089;27;20451;-91
2023/05/27 11:36:03;;;;;;;20.55;7.18;;;17.20;99.90;;;;;;5134198;27;20023;-90
2023/05/27 11:38:47;;;;;;;20.45;6.75;;;17.10;99.90;;;;;;5120845;27;20043;-89
2023/05/27 11:41:17;;;;;;;16.73;5.80;;;18.30;99.90;;;;;;5135893;27;20055;-88
2023/05/27 11:44:05;;;;;;;15.55;6.13;;;18.00;99.90;;;;;;5137816;27;20019;-95
2023/05/27 11:47:01;;;;;;;15.50;6.03;;;17.30;99.90;;;;;;5132108;27;20019;-94
2023/05/27 11:49:56;;;;;;;15.43;6.47;;;18.00;99.90;;;;;;5148324;27;20053;-95
2023/05/27 11:52:31;;;;;;;20.80;6.00;;;17.40;99.90;;;;;;5128104;27;20032;-94
2023/05/27 11:55:15;;;;;;;18.70;5.80;;;18.60;99.90;;;;;;5121564;28;20019;-94
2023/05/27 11:57:58;;;;;;;20.20;5.95;;;18.70;99.90;;;;;;5137899;27;20035;-93
2023/05/27 12:00:30;;;;;;;14.30;5.65;;;17.80;99.90;;;;;;5162446;27;20022;-96
2023/05/27 12:03:23;;;;;;;20.63;7.40;;;17.80;99.90;;;;;;5126047;27;20045;-94
2023/05/27 12:06:13;;;;;;;18.52;6.10;;;17.90;99.90;;;;;;5158543;27;20015;-96
2023/05/27 12:09:16;;;;;;;24.60;6.60;;;17.90;99.90;;;;;;5151039;27;20038;-95
2023/05/27 12:12:44;;;;;;;14.07;5.80;;;17.90;99.90;;;;;;5169066;27;20034;-95
2023/05/27 12:15:31;;;;;;;21.70;6.72;;;18.00;99.90;;;;;;5162056;27;20100;-94
2023/05/27 12:17:57;;;;;;;20.42;6.07;;;18.00;99.90;;;;;;5153886;27;20019;-94
2023/05/27 12:20:41;;;;;;;13.70;5.88;;;19.10;99.90;;;;;;5153330;27;20050;-92
2023/05/27 12:23:07;;;;;;;15.98;5.95;;;18.00;99.90;;;;;;5154329;27;20034;-93
2023/05/27 12:25:51;;;;;;;17.77;5.72;;;18.20;99.90;;;;;;5153947;27;20105;-93
2023/05/27 12:28:16;;;;;;;12.90;5.32;;;19.40;99.90;;;;;;5154767;27;20027;-94
2023/05/27 12:31:04;;;;;;;12.95;5.72;;;19.40;99.90;;;;;;5155433;27;20034;-94
2023/05/27 12:33:30;;;;;;;14.55;6.45;;;18.40;99.90;;;;;;5114905;28;20051;-93
2023/05/27 12:36:15;;;;;;;17.40;6.60;;;19.60;99.90;;;;;;5115325;28;20019;-94
2023/05/27 12:38:41;;;;;;;15.07;6.97;;;18.50;99.90;;;;;;5114915;28;20039;-93
2023/05/27 12:41:10;;;;;;;14.07;6.10;;;18.60;99.90;;;;;;5114029;28;20475;-90
2023/05/27 12:43:51;;;;;;;15.27;6.82;;;18.10;99.90;;;;;;5131253;27;20031;-88
2023/05/27 12:46:16;;;;;;;16.05;6.18;;;19.70;99.90;;;;;;5131140;27;20032;-86
2023/05/27 12:48:42;;;;;;;13.27;6.00;;;19.60;99.90;;;;;;5133187;27;20027;-87
2023/05/27 12:51:08;;;;;;;14.73;5.95;;;18.80;99.90;;;;;;5115837;28;20031;-85